createdAt,value
2023-02-13T00:00:53.461Z,13.70
2023-02-13T00:03:20.724Z,17.90
2023-02-13T00:05:47.894Z,15.50
2023-02-13T00:08:15.063Z,16.23
2023-02-13T00:10:42.117Z,18.77
2023-02-13T00:13:09.264Z,16.40
2023-02-13T00:15:36.393Z,17.63
2023-02-13T00:18:04.520Z,14.90
2023-02-13T00:20:31.736Z,14.73
2023-02-13T00:23:00.195Z,17.00
2023-02-13T00:25:27.240Z,13.60
2023-02-13T00:27:54.592Z,14.63
2023-02-13T00:30:22.374Z,17.67
2023-02-13T00:32:49.729Z,14.95
2023-02-13T00:35:16.997Z,11.10
2023-02-13T00:37:44.136Z,17.42
2023-02-13T00:40:12.345Z,17.33
2023-02-13T00:42:39.264Z,16.50
2023-02-13T00:45:06.721Z,15.43
2023-02-13T00:47:33.776Z,17.17
2023-02-13T00:50:00.782Z,13.00
2023-02-13T00:52:27.956Z,11.82
2023-02-13T00:54:55.205Z,13.25
2023-02-13T00:57:22.342Z,15.35
2023-02-13T00:59:50.540Z,17.27
2023-02-13T01:02:18.068Z,14.60
2023-02-13T01:04:45.612Z,12.10
2023-02-13T01:07:12.615Z,12.60
2023-02-13T01:09:39.774Z,13.25
2023-02-13T01:12:07.001Z,10.90
2023-02-13T01:14:34.467Z,12.27
2023-02-13T01:17:01.605Z,12.13
2023-02-13T01:19:28.659Z,13.48
2023-02-13T01:21:55.675Z,16.40
2023-02-13T01:24:22.866Z,14.55
2023-02-13T01:26:49.947Z,11.98
2023-02-13T01:29:16.947Z,12.60
2023-02-13T01:31:43.961Z,13.77
2023-02-13T01:34:10.936Z,12.23
2023-02-13T01:36:38.011Z,14.20
2023-02-13T01:39:05.166Z,14.43
2023-02-13T01:41:32.239Z,15.85
2023-02-13T01:44:02.286Z,14.60
2023-02-13T01:46:35.756Z,15.32
2023-02-13T01:49:26.006Z,12.85
2023-02-13T01:51:56.535Z,12.02
2023-02-13T01:54:31.174Z,10.52
2023-02-13T01:57:10.383Z,12.52
2023-02-13T01:59:48.456Z,12.63
2023-02-13T02:02:17.241Z,14.30
2023-02-13T02:04:46.901Z,13.38
2023-02-13T02:07:29.997Z,14.55
2023-02-13T02:10:04.911Z,11.85
2023-02-13T02:12:52.600Z,14.70
2023-02-13T02:15:20.160Z,15.93
2023-02-13T02:17:47.252Z,15.90
2023-02-13T02:21:01.284Z,17.63
2023-02-13T02:24:02.207Z,17.05
2023-02-13T02:27:05.995Z,17.77
2023-02-13T02:30:00.543Z,14.90
2023-02-13T02:33:10.440Z,11.95
2023-02-13T02:36:11.650Z,13.70
2023-02-13T02:39:37.792Z,14.23
2023-02-13T02:42:54.761Z,16.63
2023-02-13T02:45:36.407Z,14.90
2023-02-13T02:48:50.689Z,14.27
2023-02-13T02:51:45.132Z,15.98
2023-02-13T02:54:44.895Z,12.38
2023-02-13T02:57:48.205Z,16.58
2023-02-13T03:00:37.952Z,12.02
2023-02-13T03:03:33.544Z,15.40
2023-02-13T03:06:14.135Z,15.23
2023-02-13T03:09:12.280Z,10.88
2023-02-13T03:11:59.963Z,12.48
2023-02-13T03:14:29.080Z,11.77
2023-02-13T03:17:17.260Z,17.75
2023-02-13T03:21:12.191Z,14.65
2023-02-13T03:30:02.251Z,17.23
2023-02-13T03:32:57.841Z,14.50
2023-02-13T03:36:14.948Z,17.40
2023-02-13T03:39:16.734Z,13.70
2023-02-13T03:41:58.034Z,12.90
2023-02-13T03:45:15.132Z,14.00
2023-02-13T03:47:45.437Z,11.80
2023-02-13T03:50:16.627Z,14.93
2023-02-13T03:53:02.308Z,14.05
2023-02-13T03:55:59.200Z,16.92
2023-02-13T03:58:56.074Z,13.48
2023-02-13T04:01:31.508Z,13.13
2023-02-13T04:04:33.809Z,16.77
2023-02-13T04:07:05.567Z,13.25
2023-02-13T04:09:37.596Z,15.30
2023-02-13T04:12:10.482Z,14.27
2023-02-13T04:14:48.917Z,14.75
2023-02-13T04:17:27.262Z,15.52
2023-02-13T04:19:55.041Z,15.38
2023-02-13T04:22:22.247Z,15.68
2023-02-13T04:24:49.642Z,14.90
2023-02-13T04:27:18.409Z,15.95
2023-02-13T04:29:45.470Z,14.82
2023-02-13T04:32:14.254Z,14.77
2023-02-13T04:34:41.255Z,13.52
2023-02-13T04:37:08.692Z,13.73
2023-02-13T04:39:35.916Z,12.45
2023-02-13T04:42:03.150Z,15.68
2023-02-13T04:44:30.212Z,15.13
2023-02-13T04:46:57.261Z,12.50
2023-02-13T04:49:24.402Z,13.95
2023-02-13T04:51:51.522Z,14.80
2023-02-13T04:54:18.492Z,13.98
2023-02-13T04:56:45.852Z,14.50
2023-02-13T04:59:13.018Z,12.30
2023-02-13T05:01:40.433Z,14.02
2023-02-13T05:04:07.429Z,14.55
2023-02-13T05:06:34.648Z,12.77
2023-02-13T05:09:01.923Z,13.80
2023-02-13T05:11:29.060Z,13.57
2023-02-13T05:13:56.263Z,15.80
2023-02-13T05:16:23.356Z,13.55
2023-02-13T05:18:55.092Z,12.70
2023-02-13T05:21:41.110Z,15.25
2023-02-13T05:24:08.495Z,11.30
2023-02-13T05:26:35.690Z,12.70
2023-02-13T05:29:22.800Z,17.33
2023-02-13T05:31:54.488Z,17.83
2023-02-13T05:34:24.421Z,15.15
2023-02-13T05:36:52.924Z,14.18
2023-02-13T05:39:20.882Z,15.65
2023-02-13T05:41:49.489Z,14.18
2023-02-13T05:44:17.239Z,12.00
2023-02-13T05:46:46.267Z,10.27
2023-02-13T05:49:15.593Z,11.27
2023-02-13T05:51:43.674Z,15.07
2023-02-13T05:54:10.758Z,12.20
2023-02-13T05:56:37.795Z,14.48
2023-02-13T05:59:05.078Z,12.07
2023-02-13T06:01:32.274Z,11.05
2023-02-13T06:04:00.942Z,11.35
2023-02-13T06:06:30.034Z,11.55
2023-02-13T06:08:57.338Z,11.13
2023-02-13T06:11:24.491Z,11.32
2023-02-13T06:13:51.648Z,13.93
2023-02-13T06:16:19.299Z,14.70
2023-02-13T06:18:46.359Z,13.15
2023-02-13T06:21:13.492Z,13.35
2023-02-13T06:23:40.849Z,13.90
2023-02-13T06:26:09.938Z,14.30
2023-02-13T06:28:37.373Z,11.73
2023-02-13T06:31:05.055Z,14.82
2023-02-13T06:33:32.338Z,13.43
2023-02-13T06:35:59.596Z,10.93
2023-02-13T06:38:26.740Z,13.68
2023-02-13T06:40:53.807Z,9.98
2023-02-13T06:43:21.201Z,9.90
2023-02-13T06:45:48.298Z,12.63
2023-02-13T06:48:15.411Z,11.05
2023-02-13T06:50:42.449Z,9.45
2023-02-13T06:53:09.754Z,12.35
2023-02-13T06:55:40.068Z,8.00
2023-02-13T06:58:07.304Z,9.05
2023-02-13T07:00:34.302Z,9.75
2023-02-13T07:03:06.849Z,12.32
2023-02-13T07:05:33.897Z,11.75
2023-02-13T07:08:00.958Z,11.10
2023-02-13T07:10:28.292Z,12.35
2023-02-13T07:13:05.442Z,11.27
2023-02-13T07:15:34.890Z,12.57
2023-02-13T07:18:02.768Z,9.77
2023-02-13T07:20:30.550Z,8.93
2023-02-13T07:23:03.321Z,10.77
2023-02-13T07:25:31.694Z,8.30
2023-02-13T07:28:07.080Z,11.73
2023-02-13T07:30:35.248Z,10.07
2023-02-13T07:33:04.607Z,9.98
2023-02-13T07:35:32.546Z,10.00
2023-02-13T07:38:00.846Z,9.68
2023-02-13T07:40:28.410Z,11.23
2023-02-13T07:42:56.598Z,8.63
2023-02-13T07:45:23.745Z,11.95
2023-02-13T07:47:50.971Z,11.77
2023-02-13T07:50:18.372Z,7.75
2023-02-13T07:52:52.705Z,8.43
2023-02-13T07:55:20.220Z,9.32
2023-02-13T07:57:47.367Z,7.85
2023-02-13T08:00:15.898Z,10.35
2023-02-13T08:02:43.214Z,9.75
2023-02-13T08:05:10.330Z,7.88
2023-02-13T08:07:37.659Z,11.95
2023-02-13T08:10:27.321Z,9.75
2023-02-13T08:12:55.366Z,9.02
2023-02-13T08:15:23.891Z,10.85
2023-02-13T08:17:50.917Z,10.98
2023-02-13T08:20:18.225Z,9.27
2023-02-13T08:22:46.130Z,7.82
2023-02-13T08:25:13.724Z,14.52
2023-02-13T08:27:40.867Z,11.43
2023-02-13T08:30:10.446Z,8.10
2023-02-13T08:32:53.054Z,8.10
2023-02-13T08:37:47.898Z,9.25
2023-02-13T08:40:15.140Z,10.18
2023-02-13T08:42:42.180Z,10.15
2023-02-13T08:45:11.829Z,13.43
2023-02-13T08:47:40.128Z,11.73
2023-02-13T08:50:08.388Z,13.27
2023-02-13T08:52:35.944Z,10.38
2023-02-13T08:55:03.889Z,12.95
2023-02-13T08:57:31.509Z,11.00
2023-02-13T08:59:58.560Z,13.70
2023-02-13T09:02:26.857Z,13.20
2023-02-13T09:04:53.933Z,9.35
2023-02-13T09:07:21.034Z,9.38
2023-02-13T09:09:48.184Z,10.95
2023-02-13T09:12:15.241Z,9.73
2023-02-13T09:14:42.387Z,10.98
2023-02-13T09:17:10.159Z,11.07
2023-02-13T09:19:37.455Z,11.20
2023-02-13T09:22:04.442Z,15.82
2023-02-13T09:24:31.594Z,11.10
2023-02-13T09:26:58.616Z,12.25
2023-02-13T09:29:25.689Z,14.18
2023-02-13T09:31:53.085Z,15.60
2023-02-13T09:34:20.172Z,10.02
2023-02-13T09:36:52.029Z,11.40
2023-02-13T09:39:19.441Z,11.27
2023-02-13T09:41:50.758Z,10.98
2023-02-13T09:44:44.405Z,9.43
2023-02-13T09:47:44.146Z,9.75
2023-02-13T09:50:27.955Z,14.68
2023-02-13T09:52:58.594Z,13.40
2023-02-13T09:55:53.054Z,14.85
2023-02-13T09:58:42.758Z,11.45
2023-02-13T10:01:38.312Z,9.75
2023-02-13T10:04:29.819Z,11.95
2023-02-13T10:07:34.548Z,11.05
2023-02-13T10:10:29.268Z,12.52
2023-02-13T10:13:11.048Z,8.75
2023-02-13T10:15:57.848Z,9.18
2023-02-13T10:18:36.360Z,10.32
2023-02-13T10:21:06.369Z,8.73
2023-02-13T10:23:40.644Z,11.35
2023-02-13T10:26:20.256Z,10.60
2023-02-13T10:29:25.710Z,9.73
2023-02-13T10:31:56.197Z,12.82
2023-02-13T10:34:31.259Z,12.27
2023-02-13T10:36:58.903Z,11.50
2023-02-13T10:39:29.255Z,13.23
2023-02-13T10:42:04.856Z,9.68
2023-02-13T10:45:17.228Z,11.73
2023-02-13T10:48:26.170Z,10.57
2023-02-13T10:51:27.038Z,9.73
2023-02-13T10:54:08.855Z,9.75
2023-02-13T10:57:05.730Z,10.55
2023-02-13T10:59:47.499Z,10.13
2023-02-13T11:02:37.007Z,13.25
2023-02-13T11:05:26.575Z,8.07
2023-02-13T11:07:53.620Z,10.75
2023-02-13T11:10:25.226Z,11.75
2023-02-13T11:12:53.246Z,11.40
2023-02-13T11:15:33.594Z,13.25
2023-02-13T11:18:23.485Z,12.90
2023-02-13T11:21:23.724Z,11.35
2023-02-13T11:23:53.929Z,9.02
2023-02-13T11:26:41.368Z,6.25
2023-02-13T11:29:32.650Z,10.18
2023-02-13T11:32:14.270Z,9.52
2023-02-13T11:34:41.842Z,11.02
2023-02-13T11:37:19.842Z,11.18
2023-02-13T11:39:51.427Z,9.57
2023-02-13T11:42:26.379Z,10.38
2023-02-13T11:45:07.842Z,10.85
2023-02-13T11:47:42.034Z,12.23
2023-02-13T11:50:35.178Z,10.75
2023-02-13T11:53:16.462Z,10.63
2023-02-13T11:56:12.577Z,9.38
2023-02-13T11:58:41.153Z,12.30
2023-02-13T12:01:20.183Z,10.20
2023-02-13T12:04:06.590Z,11.30
2023-02-13T12:06:39.973Z,12.45
2023-02-13T12:09:16.239Z,9.20
2023-02-13T12:11:56.821Z,8.10
2023-02-13T12:14:31.678Z,12.43
2023-02-13T12:17:05.184Z,10.52
2023-02-13T12:19:50.520Z,8.98
2023-02-13T12:22:34.949Z,9.90
2023-02-13T12:25:23.839Z,8.50
2023-02-13T12:28:21.374Z,9.57
2023-02-13T12:31:10.179Z,10.73
2023-02-13T12:34:24.243Z,9.73
2023-02-13T12:37:15.981Z,8.93
2023-02-13T12:39:58.500Z,11.07
2023-02-13T12:43:00.884Z,12.25
2023-02-13T12:45:47.620Z,8.88
2023-02-13T12:48:57.335Z,8.90
2023-02-13T12:52:00.747Z,14.02
2023-02-13T12:54:46.210Z,12.10
2023-02-13T12:57:19.101Z,9.85
2023-02-13T13:00:22.803Z,11.90
2023-02-13T13:03:23.945Z,10.02
2023-02-13T13:06:19.757Z,17.92
2023-02-13T13:09:07.183Z,9.15
2023-02-13T13:11:58.924Z,8.73
2023-02-13T13:14:49.836Z,11.48
2023-02-13T13:17:57.804Z,9.27
2023-02-13T13:20:37.968Z,11.10
2023-02-13T13:23:25.008Z,10.50
2023-02-13T13:26:06.212Z,10.52
2023-02-13T13:28:43.045Z,9.77
2023-02-13T13:31:14.073Z,8.88
2023-02-13T13:33:46.712Z,8.55
2023-02-13T13:36:30.716Z,10.27
2023-02-13T13:39:39.177Z,9.70
2023-02-13T13:42:34.549Z,11.02
2023-02-13T13:45:08.972Z,7.25
2023-02-13T13:47:56.932Z,12.38
2023-02-13T13:50:31.551Z,13.25
2023-02-13T13:53:15.181Z,12.02
2023-02-13T13:55:50.767Z,8.43
2023-02-13T13:58:33.315Z,7.97
2023-02-13T14:01:15.529Z,12.95
2023-02-13T14:03:48.647Z,12.38
2023-02-13T14:08:49.609Z,8.82
2023-02-13T14:11:36.349Z,9.93
2023-02-13T14:14:31.532Z,12.23
2023-02-13T14:17:04.419Z,12.80
2023-02-13T14:19:38.526Z,10.07
2023-02-13T14:22:20.628Z,6.90
2023-02-13T14:24:58.634Z,10.27
2023-02-13T14:27:35.218Z,9.63
2023-02-13T14:30:04.043Z,9.63
2023-02-13T14:32:37.883Z,10.80
2023-02-13T14:35:29.196Z,10.48
2023-02-13T14:38:04.360Z,12.02
2023-02-13T14:40:51.882Z,10.23
2023-02-13T14:43:30.380Z,13.02
2023-02-13T14:46:20.849Z,10.40
2023-02-13T14:49:30.721Z,11.85
2023-02-13T14:52:08.025Z,9.10
2023-02-13T14:54:42.502Z,11.60
2023-02-13T14:57:45.999Z,13.80
2023-02-13T15:00:43.550Z,11.48
2023-02-13T15:03:51.137Z,8.50
2023-02-13T15:06:32.299Z,12.02
2023-02-13T15:09:06.923Z,10.77
2023-02-13T15:11:43.692Z,10.38
2023-02-13T15:14:23.834Z,9.65
2023-02-13T15:16:59.700Z,11.32
2023-02-13T15:19:27.264Z,11.20
2023-02-13T15:22:02.901Z,13.80
2023-02-13T15:24:46.283Z,11.73
2023-02-13T15:27:27.923Z,11.80
2023-02-13T15:30:15.767Z,12.18
2023-02-13T15:32:43.168Z,13.40
2023-02-13T15:35:33.535Z,14.02
2023-02-13T15:38:29.032Z,10.02
2023-02-13T15:41:06.493Z,14.50
2023-02-13T15:43:51.766Z,12.63
2023-02-13T15:46:38.753Z,14.43
2023-02-13T15:49:15.951Z,13.45
2023-02-13T15:51:44.273Z,13.93
2023-02-13T15:54:32.759Z,10.85
2023-02-13T15:57:06.957Z,12.65
2023-02-13T15:59:39.641Z,12.80
2023-02-13T16:02:23.975Z,14.82
2023-02-13T16:04:54.468Z,10.68
2023-02-13T16:07:21.972Z,9.82
2023-02-13T16:09:49.121Z,11.57
2023-02-13T16:12:28.819Z,12.00
2023-02-13T16:15:06.260Z,16.17
2023-02-13T16:17:37.483Z,15.43
2023-02-13T16:20:12.001Z,10.48
2023-02-13T16:22:52.402Z,12.98
2023-02-13T16:25:30.809Z,12.57
2023-02-13T16:28:03.647Z,12.43
2023-02-13T16:30:44.325Z,12.43
2023-02-13T16:33:17.309Z,13.02
2023-02-13T16:38:41.265Z,10.82
2023-02-13T16:41:23.169Z,10.35
2023-02-13T16:44:00.098Z,12.98
2023-02-13T16:47:04.941Z,14.52
2023-02-13T16:49:37.794Z,15.02
2023-02-13T16:52:24.271Z,17.20
2023-02-13T16:55:02.412Z,18.42
2023-02-13T16:57:33.970Z,14.82
2023-02-13T17:00:07.318Z,14.88
2023-02-13T17:02:41.447Z,12.00
2023-02-13T17:05:08.596Z,14.70
2023-02-13T17:07:41.621Z,17.05
2023-02-13T17:10:27.176Z,14.82
2023-02-13T17:12:58.911Z,12.15
2023-02-13T17:15:29.419Z,11.60
2023-02-13T17:17:56.854Z,15.52
2023-02-13T17:20:37.326Z,16.17
2023-02-13T17:23:08.269Z,16.52
2023-02-13T17:25:38.128Z,18.15
2023-02-13T17:28:21.129Z,22.33
2023-02-13T17:30:52.058Z,20.48
2023-02-13T17:33:26.277Z,22.38
2023-02-13T17:35:54.334Z,18.08
2023-02-13T17:38:22.628Z,24.42
2023-02-13T17:40:50.371Z,23.65
2023-02-13T17:43:20.006Z,18.95
2023-02-13T17:45:49.737Z,17.63
2023-02-13T17:48:17.599Z,16.98
2023-02-13T17:50:44.928Z,20.80
2023-02-13T17:53:30.530Z,18.33
2023-02-13T17:55:58.306Z,16.67
2023-02-13T17:58:25.498Z,24.98
2023-02-13T18:00:53.528Z,21.08
2023-02-13T18:03:21.461Z,19.13
2023-02-13T18:05:51.889Z,18.13
2023-02-13T18:08:20.176Z,15.38
2023-02-13T18:10:47.718Z,20.77
2023-02-13T18:13:15.347Z,20.98
2023-02-13T18:28:25.513Z,18.48
2023-02-13T18:30:52.537Z,17.50
2023-02-13T18:33:19.695Z,21.65
2023-02-13T18:35:46.599Z,27.60
2023-02-13T18:38:13.424Z,19.98
2023-02-13T18:40:40.407Z,24.70
2023-02-13T18:43:07.458Z,26.58
2023-02-13T18:45:36.750Z,28.23
2023-02-13T18:48:03.712Z,27.08
2023-02-13T18:50:30.849Z,23.05
2023-02-13T18:52:57.765Z,19.45
2023-02-13T18:55:24.828Z,22.83
2023-02-13T18:57:54.540Z,22.48
2023-02-13T19:00:23.414Z,25.55
2023-02-13T19:03:04.462Z,21.65
2023-02-13T19:05:31.624Z,24.23
2023-02-13T19:08:00.639Z,22.40
2023-02-13T19:10:27.898Z,23.88
2023-02-13T19:12:54.806Z,21.73
2023-02-13T19:15:21.888Z,20.75
2023-02-13T19:17:48.983Z,22.45
2023-02-13T19:20:17.020Z,20.65
2023-02-13T19:22:44.009Z,18.55
2023-02-13T19:25:10.829Z,21.35
2023-02-13T19:27:38.182Z,20.25
2023-02-13T19:30:07.789Z,22.80
2023-02-13T19:32:35.436Z,25.27
2023-02-13T19:35:02.454Z,21.45
2023-02-13T19:37:35.770Z,21.40
2023-02-13T19:40:09.893Z,22.50
2023-02-13T19:42:38.127Z,21.00
2023-02-13T19:45:06.268Z,25.13
2023-02-13T19:47:34.281Z,23.88
2023-02-13T19:50:01.326Z,23.23
2023-02-13T19:52:28.337Z,21.38
2023-02-13T19:54:55.237Z,22.25
2023-02-13T19:57:22.123Z,22.80
2023-02-13T19:59:49.293Z,21.63
2023-02-13T20:02:17.369Z,24.15
2023-02-13T20:04:44.681Z,25.83
2023-02-13T20:07:11.658Z,23.58
2023-02-13T20:09:40.094Z,20.10
2023-02-13T20:12:07.789Z,28.27
2023-02-13T20:14:34.969Z,26.27
2023-02-13T20:17:02.274Z,25.35
2023-02-13T20:19:29.450Z,22.45
2023-02-13T20:21:56.561Z,22.58
2023-02-13T20:24:23.738Z,21.25
2023-02-13T20:26:50.832Z,26.67
2023-02-13T20:29:17.996Z,24.77
2023-02-13T20:31:45.013Z,25.02
2023-02-13T20:34:12.422Z,25.75
2023-02-13T20:36:39.321Z,25.85
2023-02-13T20:39:08.225Z,22.15
2023-02-13T20:41:38.177Z,23.90
2023-02-13T20:44:11.322Z,25.75
2023-02-13T20:46:40.244Z,20.25
2023-02-13T20:49:07.897Z,20.58
2023-02-13T20:51:35.711Z,24.77
2023-02-13T20:54:03.519Z,22.25
2023-02-13T20:56:31.291Z,25.90
2023-02-13T20:59:02.407Z,22.50
2023-02-13T21:01:40.349Z,20.50
2023-02-13T21:04:13.745Z,22.25
2023-02-13T21:06:42.182Z,29.08
2023-02-13T21:09:09.989Z,22.48
2023-02-13T21:11:39.623Z,22.40
2023-02-13T21:14:07.017Z,22.92
2023-02-13T21:16:38.771Z,24.20
2023-02-13T21:19:17.208Z,26.90
2023-02-13T21:21:45.620Z,27.50
2023-02-13T21:24:19.439Z,23.08
2023-02-13T21:26:49.661Z,23.17
2023-02-13T21:29:16.479Z,22.75
2023-02-13T21:31:49.565Z,27.05
2023-02-13T21:34:20.338Z,24.30
2023-02-13T21:36:47.320Z,27.20
2023-02-13T21:39:17.665Z,31.15
2023-02-13T21:41:45.840Z,27.70
2023-02-13T21:44:14.791Z,25.48
2023-02-13T21:46:43.083Z,25.45
2023-02-13T21:49:19.671Z,24.10
2023-02-13T21:51:47.472Z,30.27
2023-02-13T21:54:14.536Z,27.33
2023-02-13T21:56:43.036Z,23.73
2023-02-13T21:59:15.450Z,27.70
2023-02-13T22:01:42.445Z,26.52
2023-02-13T22:04:10.173Z,22.05
2023-02-13T22:06:39.536Z,30.02
2023-02-13T22:09:11.139Z,30.77
2023-02-13T22:11:38.615Z,22.30
2023-02-13T22:14:10.911Z,23.35
2023-02-13T22:16:39.127Z,25.83
2023-02-13T22:19:07.531Z,23.15
2023-02-13T22:21:36.590Z,22.60
2023-02-13T22:24:04.129Z,19.48
2023-02-13T22:26:34.775Z,25.27
2023-02-13T22:29:12.783Z,20.02
2023-02-13T22:31:42.581Z,24.55
2023-02-13T22:34:13.644Z,23.38
2023-02-13T22:36:41.363Z,25.38
2023-02-13T22:39:10.497Z,20.90
2023-02-13T22:41:38.524Z,24.23
2023-02-13T22:44:05.732Z,28.92
2023-02-13T22:46:34.216Z,17.83
2023-02-13T22:49:01.214Z,28.85
2023-02-13T22:51:32.185Z,20.80
2023-02-13T22:53:59.862Z,21.75
2023-02-13T22:56:29.955Z,22.17
2023-02-13T22:58:58.049Z,24.33
2023-02-13T23:01:27.009Z,23.13
2023-02-13T23:03:54.476Z,25.05
2023-02-13T23:06:21.983Z,24.88
2023-02-13T23:08:52.401Z,25.52
2023-02-13T23:11:41.443Z,22.73
2023-02-13T23:14:09.978Z,24.42
2023-02-13T23:16:57.932Z,21.60
2023-02-13T23:19:27.266Z,27.13
2023-02-13T23:21:54.140Z,20.17
2023-02-13T23:24:21.188Z,22.33
2023-02-13T23:26:48.008Z,22.33
2023-02-13T23:29:14.966Z,28.70
2023-02-13T23:31:42.006Z,24.63
2023-02-13T23:34:09.157Z,25.98
2023-02-13T23:36:35.986Z,25.95
2023-02-13T23:39:02.978Z,23.95
2023-02-13T23:41:29.809Z,22.55
2023-02-13T23:43:56.773Z,26.15
2023-02-13T23:46:23.700Z,25.23
2023-02-13T23:48:50.540Z,23.83
2023-02-13T23:51:18.434Z,21.55
2023-02-13T23:53:45.455Z,25.10
2023-02-13T23:56:12.312Z,24.08
2023-02-13T23:58:39.140Z,25.42
